createdAt,value
2019-06-07T00:01:00.910Z,14.20
2019-06-07T00:02:53.172Z,14.20
2019-06-07T00:04:45.657Z,14.10
2019-06-07T00:06:38.771Z,14.10
2019-06-07T00:08:30.913Z,14.00
2019-06-07T00:10:35.846Z,13.90
2019-06-07T00:12:21.425Z,14.10
2019-06-07T00:14:16.193Z,14.10
2019-06-07T00:16:08.637Z,14.10
2019-06-07T00:18:00.871Z,14.10
2019-06-07T00:19:55.204Z,14.10
2019-06-07T00:22:15.999Z,14.10
2019-06-07T00:23:46.325Z,14.00
2019-06-07T00:25:38.710Z,14.10
2019-06-07T00:27:30.809Z,14.10
2019-06-07T00:29:23.185Z,14.20
2019-06-07T00:31:18.222Z,14.30
2019-06-07T00:33:11.021Z,14.30
2019-06-07T00:35:05.029Z,14.30
2019-06-07T00:36:57.483Z,14.30
2019-06-07T00:38:49.682Z,14.30
2019-06-07T00:40:41.855Z,14.40
2019-06-07T00:42:34.474Z,14.50
2019-06-07T00:44:26.594Z,14.40
2019-06-07T00:46:20.850Z,14.40
2019-06-07T00:48:19.650Z,14.40
2019-06-07T00:50:08.257Z,14.40
2019-06-07T00:52:00.493Z,14.40
2019-06-07T00:53:52.804Z,14.40
2019-06-07T00:55:45.036Z,14.40
2019-06-07T00:57:37.853Z,14.50
2019-06-07T00:59:30.141Z,14.40
2019-06-07T01:01:25.374Z,14.40
2019-06-07T01:03:17.455Z,14.40
2019-06-07T01:05:10.106Z,14.20
2019-06-07T01:07:02.408Z,14.20
2019-06-07T01:08:54.751Z,14.10
2019-06-07T01:10:53.503Z,14.10
2019-06-07T01:12:41.119Z,14.20
2019-06-07T01:14:33.432Z,14.10
2019-06-07T01:16:26.550Z,14.10
2019-06-07T01:18:37.848Z,14.00
2019-06-07T01:20:14.153Z,14.10
2019-06-07T01:22:06.398Z,14.10
2019-06-07T01:24:11.542Z,14.10
2019-06-07T01:25:52.521Z,14.00
2019-06-07T01:27:45.605Z,14.00
2019-06-07T01:29:37.713Z,14.00
2019-06-07T01:31:31.486Z,14.00
2019-06-07T01:33:28.552Z,13.90
2019-06-07T01:35:20.191Z,13.90
2019-06-07T01:37:11.112Z,13.90
2019-06-07T01:39:04.251Z,13.80
2019-06-07T01:40:56.825Z,13.80
2019-06-07T01:42:50.152Z,13.90
2019-06-07T01:44:42.054Z,13.90
2019-06-07T01:46:34.477Z,13.90
2019-06-07T01:48:46.194Z,13.90
2019-06-07T01:50:23.363Z,13.90
2019-06-07T01:52:14.624Z,13.80
2019-06-07T01:54:49.235Z,13.80
2019-06-07T01:56:00.637Z,13.80
2019-06-07T01:57:52.973Z,13.70
2019-06-07T01:59:45.303Z,13.70
2019-06-07T02:01:37.420Z,13.70
2019-06-07T02:03:32.950Z,13.70
2019-06-07T02:05:25.743Z,13.70
2019-06-07T02:07:20.399Z,13.70
2019-06-07T02:09:10.976Z,13.60
2019-06-07T02:11:03.156Z,13.50
2019-06-07T02:12:55.334Z,13.50
2019-06-07T02:14:47.478Z,13.60
2019-06-07T02:16:39.820Z,13.50
2019-06-07T02:18:34.688Z,13.40
2019-06-07T02:20:28.024Z,13.40
2019-06-07T02:22:21.481Z,13.40
2019-06-07T02:24:14.153Z,13.30
2019-06-07T02:26:06.255Z,13.20
2019-06-07T02:28:25.883Z,13.30
2019-06-07T02:29:52.064Z,13.20
2019-06-07T02:31:44.249Z,13.30
2019-06-07T02:33:40.169Z,13.20
2019-06-07T02:35:38.744Z,13.10
2019-06-07T02:37:26.357Z,13.00
2019-06-07T02:39:17.387Z,13.00
2019-06-07T02:41:09.423Z,13.10
2019-06-07T02:43:01.645Z,13.10
2019-06-07T02:44:54.025Z,13.20
2019-06-07T02:46:49.628Z,13.10
2019-06-07T02:48:40.586Z,13.10
2019-06-07T02:50:38.013Z,13.20
2019-06-07T02:52:29.332Z,13.10
2019-06-07T02:54:21.203Z,13.10
2019-06-07T02:56:37.217Z,13.00
2019-06-07T02:58:07.291Z,12.90
2019-06-07T03:00:16.738Z,12.90
2019-06-07T03:01:53.760Z,13.00
2019-06-07T03:03:46.301Z,13.00
2019-06-07T03:05:40.901Z,13.00
2019-06-07T03:07:38.926Z,13.00
2019-06-07T03:09:30.733Z,13.00
2019-06-07T03:11:22.155Z,13.00
2019-06-07T03:13:15.597Z,13.00
2019-06-07T03:15:08.173Z,13.00
2019-06-07T03:17:05.372Z,13.00
2019-06-07T03:19:02.929Z,13.00
2019-06-07T03:21:04.899Z,13.00
2019-06-07T03:22:50.709Z,12.90
2019-06-07T03:24:44.566Z,12.90
2019-06-07T03:27:31.420Z,12.90
2019-06-07T03:28:34.223Z,12.90
2019-06-07T03:30:38.746Z,12.80
2019-06-07T03:32:18.310Z,12.80
2019-06-07T03:34:10.581Z,12.80
2019-06-07T03:36:22.735Z,12.80
2019-06-07T03:37:56.902Z,12.70
2019-06-07T03:39:49.091Z,12.70
2019-06-07T03:41:55.685Z,12.70
2019-06-07T03:43:38.677Z,12.70
2019-06-07T03:45:30.747Z,12.70
2019-06-07T03:47:22.669Z,12.70
2019-06-07T03:49:14.845Z,12.60
2019-06-07T03:53:00.700Z,12.70
2019-06-07T03:54:52.945Z,12.80
2019-06-07T03:56:45.327Z,12.80
2019-06-07T03:58:48.520Z,12.80
2019-06-07T04:00:34.197Z,12.80
2019-06-07T04:02:25.313Z,12.80
2019-06-07T04:04:17.755Z,12.80
2019-06-07T04:06:09.655Z,12.90
2019-06-07T04:08:02.025Z,12.90
2019-06-07T04:09:54.212Z,12.90
2019-06-07T04:11:46.411Z,12.90
2019-06-07T04:13:42.765Z,12.90
2019-06-07T04:15:36.069Z,12.80
2019-06-07T04:17:30.703Z,12.90
2019-06-07T04:19:20.615Z,12.90
2019-06-07T04:21:12.727Z,12.80
2019-06-07T04:23:24.890Z,12.80
2019-06-07T04:25:00.078Z,12.70
2019-06-07T04:26:52.399Z,12.70
2019-06-07T04:30:41.794Z,12.70
2019-06-07T04:32:34.323Z,12.70
2019-06-07T04:34:29.145Z,12.70
2019-06-07T04:36:39.363Z,12.70
2019-06-07T04:38:15.488Z,12.70
2019-06-07T04:40:08.410Z,12.60
2019-06-07T04:42:02.059Z,12.70
2019-06-07T04:43:54.771Z,12.60
2019-06-07T04:45:51.253Z,12.50
2019-06-07T04:47:44.379Z,12.40
2019-06-07T04:49:41.175Z,12.60
2019-06-07T04:51:32.376Z,12.60
2019-06-07T04:53:27.020Z,12.70
2019-06-07T04:55:19.164Z,12.60
2019-06-07T04:57:11.731Z,12.70
2019-06-07T04:59:04.024Z,12.90
2019-06-07T05:01:03.036Z,12.80
2019-06-07T05:02:50.659Z,12.70
2019-06-07T05:04:44.026Z,12.70
2019-06-07T05:06:39.674Z,12.80
2019-06-07T05:08:33.278Z,12.90
2019-06-07T05:10:24.770Z,12.90
2019-06-07T05:12:16.984Z,13.00
2019-06-07T05:14:08.915Z,13.10
2019-06-07T05:16:01.071Z,13.20
2019-06-07T05:17:53.344Z,13.10
2019-06-07T05:19:45.415Z,13.20
2019-06-07T05:22:01.524Z,13.40
2019-06-07T05:25:31.651Z,13.40
2019-06-07T05:27:22.769Z,13.40
2019-06-07T05:29:15.020Z,13.60
2019-06-07T05:31:08.116Z,13.60
2019-06-07T05:33:01.137Z,13.70
2019-06-07T05:34:53.267Z,13.80
2019-06-07T05:36:45.468Z,13.90
2019-06-07T05:38:41.092Z,13.90
2019-06-07T05:40:34.345Z,13.90
2019-06-07T05:42:26.501Z,13.90
2019-06-07T05:44:18.581Z,14.00
2019-06-07T05:46:11.000Z,14.10
2019-06-07T05:48:04.081Z,14.20
2019-06-07T05:49:56.569Z,14.30
2019-06-07T05:51:48.835Z,14.20
2019-06-07T05:53:42.597Z,14.30
2019-06-07T05:55:35.259Z,14.40
2019-06-07T05:57:28.058Z,14.50
2019-06-07T05:59:20.425Z,14.60
2019-06-07T06:01:42.242Z,14.60
2019-06-07T06:03:06.441Z,14.60
2019-06-07T06:04:59.159Z,14.60
2019-06-07T06:06:51.312Z,14.70
2019-06-07T06:08:45.246Z,14.70
2019-06-07T06:10:39.745Z,14.80
2019-06-07T06:12:35.218Z,14.80
2019-06-07T06:14:25.119Z,14.90
2019-06-07T06:16:17.280Z,14.90
2019-06-07T06:18:09.453Z,14.90
2019-06-07T06:20:01.585Z,15.00
2019-06-07T06:21:53.863Z,15.00
2019-06-07T06:23:48.120Z,15.10
2019-06-07T06:25:44.965Z,15.30
2019-06-07T06:29:28.921Z,15.50
2019-06-07T06:31:21.874Z,15.70
2019-06-07T06:33:30.848Z,15.80
2019-06-07T06:35:08.052Z,15.80
2019-06-07T06:37:00.465Z,15.90
2019-06-07T06:38:53.041Z,15.80
2019-06-07T06:40:49.044Z,15.80
2019-06-07T06:42:44.693Z,15.90
2019-06-07T06:44:36.024Z,16.10
2019-06-07T06:46:38.580Z,16.10
2019-06-07T06:48:22.149Z,16.10
2019-06-07T06:50:14.061Z,16.10
2019-06-07T06:52:06.199Z,16.20
2019-06-07T06:53:58.382Z,16.40
2019-06-07T06:55:51.406Z,16.40
2019-06-07T06:57:43.812Z,16.50
2019-06-07T06:59:39.142Z,16.50
2019-06-07T07:01:30.173Z,16.70
2019-06-07T07:05:18.035Z,16.60
2019-06-07T07:07:10.897Z,16.70
2019-06-07T07:09:04.723Z,16.80
2019-06-07T07:10:57.014Z,16.90
2019-06-07T07:12:51.199Z,17.10
2019-06-07T07:14:45.591Z,17.20
2019-06-07T07:16:36.741Z,17.20
2019-06-07T07:18:29.294Z,17.50
2019-06-07T07:20:21.999Z,17.40
2019-06-07T07:22:13.825Z,17.60
2019-06-07T07:24:21.082Z,17.70
2019-06-07T07:26:00.311Z,17.80
2019-06-07T07:27:55.277Z,17.80
2019-06-07T07:29:49.643Z,17.90
2019-06-07T07:31:40.649Z,18.20
2019-06-07T07:34:20.649Z,18.50
2019-06-07T07:35:28.193Z,18.60
2019-06-07T07:37:20.106Z,18.50
2019-06-07T07:39:12.320Z,18.50
2019-06-07T07:41:14.558Z,18.50
2019-06-07T07:42:58.815Z,18.40
2019-06-07T07:44:53.721Z,18.70
2019-06-07T07:46:46.613Z,18.80
2019-06-07T07:48:40.505Z,18.80
2019-06-07T07:50:32.484Z,18.80
2019-06-07T07:52:24.489Z,18.80
2019-06-07T07:54:16.388Z,18.90
2019-06-07T07:56:09.054Z,19.10
2019-06-07T07:58:02.032Z,19.20
2019-06-07T08:00:25.336Z,19.10
2019-06-07T08:01:53.091Z,19.10
2019-06-07T08:03:43.932Z,19.00
2019-06-07T08:05:42.802Z,19.20
2019-06-07T08:07:30.586Z,19.20
2019-06-07T08:09:22.899Z,19.30
2019-06-07T08:11:17.832Z,19.50
2019-06-07T08:13:27.565Z,19.30
2019-06-07T08:15:05.350Z,19.30
2019-06-07T08:16:59.194Z,19.50
2019-06-07T08:18:54.699Z,19.60
2019-06-07T08:21:05.989Z,19.80
2019-06-07T08:22:39.556Z,19.80
2019-06-07T08:24:32.131Z,19.90
2019-06-07T08:26:24.925Z,19.70
2019-06-07T08:28:17.484Z,19.90
2019-06-07T08:30:46.467Z,19.90
2019-06-07T08:32:04.955Z,20.10
2019-06-07T08:34:00.181Z,20.30
2019-06-07T08:36:10.472Z,20.50
2019-06-07T08:39:38.982Z,20.50
2019-06-07T08:41:31.669Z,20.50
2019-06-07T08:43:24.012Z,20.20
2019-06-07T08:45:17.317Z,19.90
2019-06-07T08:47:20.153Z,20.10
2019-06-07T08:49:04.754Z,20.40
2019-06-07T08:51:06.291Z,20.80
2019-06-07T08:52:56.051Z,20.60
2019-06-07T08:54:50.481Z,20.50
2019-06-07T08:56:44.440Z,20.20
2019-06-07T08:58:39.031Z,20.30
2019-06-07T09:00:48.024Z,20.50
2019-06-07T09:02:26.010Z,20.70
2019-06-07T09:04:19.097Z,20.90
2019-06-07T09:06:54.289Z,20.90
2019-06-07T09:08:28.236Z,20.80
2019-06-07T09:10:09.316Z,21.00
2019-06-07T09:11:57.191Z,20.90
2019-06-07T09:13:49.172Z,21.30
2019-06-07T09:15:41.053Z,21.90
2019-06-07T09:17:34.153Z,21.50
2019-06-07T09:19:28.341Z,21.10
2019-06-07T09:21:20.484Z,21.10
2019-06-07T09:23:17.134Z,21.20
2019-06-07T09:25:20.082Z,21.50
2019-06-07T09:27:05.412Z,21.30
2019-06-07T09:28:57.772Z,21.20
2019-06-07T09:30:49.916Z,21.60
2019-06-07T09:32:41.820Z,21.50
2019-06-07T09:34:33.796Z,21.70
2019-06-07T09:36:26.163Z,21.80
2019-06-07T09:38:25.824Z,21.90
2019-06-07T09:40:25.041Z,22.00
2019-06-07T09:42:09.919Z,22.10
2019-06-07T09:44:13.027Z,22.40
2019-06-07T09:45:53.326Z,22.50
2019-06-07T09:47:45.420Z,22.00
2019-06-07T09:49:38.527Z,21.90
2019-06-07T09:51:31.676Z,21.70
2019-06-07T09:53:23.909Z,21.90
2019-06-07T09:55:24.269Z,22.30
2019-06-07T09:57:17.112Z,22.20
2019-06-07T09:59:07.482Z,22.60
2019-06-07T10:01:06.106Z,22.90
2019-06-07T10:02:54.396Z,22.70
2019-06-07T10:04:46.832Z,22.90
2019-06-07T10:06:39.233Z,22.80
2019-06-07T10:12:19.732Z,23.60
2019-06-07T10:14:11.860Z,23.20
2019-06-07T10:16:04.781Z,23.10
2019-06-07T10:17:57.139Z,23.20
2019-06-07T10:19:49.233Z,23.50
2019-06-07T10:21:41.653Z,23.80
2019-06-07T10:23:34.154Z,24.00
2019-06-07T10:25:26.469Z,24.10
2019-06-07T10:27:18.574Z,24.30
2019-06-07T10:29:10.764Z,24.30
2019-06-07T10:31:04.407Z,24.40
2019-06-07T10:32:56.761Z,24.70
2019-06-07T10:34:49.060Z,24.50
2019-06-07T10:36:41.067Z,24.40
2019-06-07T10:38:33.226Z,23.90
2019-06-07T10:40:25.676Z,24.20
2019-06-07T10:42:18.149Z,24.50
2019-06-07T10:44:11.485Z,24.40
2019-06-07T10:46:05.570Z,24.10
2019-06-07T10:47:57.688Z,24.10
2019-06-07T10:49:50.248Z,24.10
2019-06-07T10:51:42.500Z,24.50
2019-06-07T10:53:34.889Z,24.80
2019-06-07T10:55:27.000Z,25.20
2019-06-07T10:57:19.177Z,25.20
2019-06-07T10:59:11.945Z,25.10
2019-06-07T11:01:05.274Z,25.20
2019-06-07T11:02:57.505Z,25.30
2019-06-07T11:04:49.459Z,25.60
2019-06-07T11:06:41.308Z,25.20
2019-06-07T11:08:34.296Z,25.50
2019-06-07T11:10:26.763Z,25.10
2019-06-07T11:12:18.883Z,25.00
2019-06-07T11:14:12.640Z,24.70
2019-06-07T11:16:06.745Z,24.90
2019-06-07T11:17:59.021Z,25.30
2019-06-07T11:19:51.188Z,25.00
2019-06-07T11:21:43.419Z,24.90
2019-06-07T11:23:35.566Z,24.70
2019-06-07T11:25:27.832Z,24.60
2019-06-07T11:27:20.437Z,24.80
2019-06-07T11:29:15.078Z,24.80
2019-06-07T11:31:08.391Z,24.90
2019-06-07T11:33:01.051Z,25.10
2019-06-07T11:34:53.502Z,25.20
2019-06-07T11:36:45.858Z,25.30
2019-06-07T11:38:38.043Z,25.30
2019-06-07T11:40:36.241Z,25.30
2019-06-07T11:42:29.654Z,25.40
2019-06-07T11:44:21.709Z,25.30
2019-06-07T11:46:15.046Z,25.50
2019-06-07T11:48:09.017Z,25.30
2019-06-07T11:50:01.729Z,25.60
2019-06-07T11:51:54.265Z,26.00
2019-06-07T11:53:46.321Z,26.20
2019-06-07T11:55:38.540Z,27.20
2019-06-07T11:57:31.746Z,27.80
2019-06-07T11:59:24.008Z,27.30
2019-06-07T12:01:18.151Z,27.40
2019-06-07T12:03:11.439Z,27.90
2019-06-07T12:05:07.740Z,28.20
2019-06-07T12:07:00.280Z,28.00
2019-06-07T12:08:52.856Z,28.00
2019-06-07T12:10:44.818Z,27.90
2019-06-07T12:12:36.798Z,28.40
2019-06-07T12:14:29.395Z,28.60
2019-06-07T12:16:21.829Z,28.40
2019-06-07T12:18:15.175Z,28.90
2019-06-07T12:20:10.225Z,28.60
2019-06-07T12:22:01.724Z,29.00
2019-06-07T12:23:53.875Z,29.20
2019-06-07T12:25:46.744Z,28.90
2019-06-07T12:27:39.081Z,29.10
2019-06-07T12:29:33.975Z,29.30
2019-06-07T12:31:26.609Z,29.40
2019-06-07T12:33:19.705Z,29.70
2019-06-07T12:35:13.523Z,29.90
2019-06-07T12:37:06.101Z,30.70
2019-06-07T12:38:58.411Z,31.30
2019-06-07T12:40:57.559Z,31.10
2019-06-07T12:42:44.139Z,30.30
2019-06-07T12:44:36.246Z,30.50
2019-06-07T12:46:28.725Z,31.00
2019-06-07T12:48:25.806Z,31.40
2019-06-07T12:50:15.469Z,30.90
2019-06-07T12:52:07.968Z,30.90
2019-06-07T12:54:00.178Z,31.60
2019-06-07T12:55:52.377Z,32.10
2019-06-07T12:57:44.680Z,32.00
2019-06-07T12:59:36.994Z,32.80
2019-06-07T13:01:28.993Z,32.40
2019-06-07T13:03:22.597Z,32.10
2019-06-07T13:05:15.400Z,32.50
2019-06-07T13:07:07.915Z,33.10
2019-06-07T13:09:00.421Z,33.60
2019-06-07T13:10:52.826Z,32.70
2019-06-07T13:12:45.164Z,32.40
2019-06-07T13:14:37.868Z,32.60
2019-06-07T13:16:30.177Z,32.90
2019-06-07T13:18:23.800Z,34.10
2019-06-07T13:20:16.521Z,35.20
2019-06-07T13:22:08.562Z,35.30
2019-06-07T13:24:01.261Z,35.10
2019-06-07T13:25:53.883Z,35.00
2019-06-07T13:27:45.846Z,35.40
2019-06-07T13:29:38.245Z,35.40
2019-06-07T13:31:30.203Z,34.10
2019-06-07T13:33:23.731Z,32.80
2019-06-07T13:35:18.898Z,32.80
2019-06-07T13:37:10.853Z,33.20
2019-06-07T13:39:02.837Z,32.70
2019-06-07T13:40:56.716Z,32.80
2019-06-07T13:42:49.046Z,33.50
2019-06-07T13:44:41.562Z,33.70
2019-06-07T13:46:33.744Z,33.90
2019-06-07T13:48:27.506Z,35.10
2019-06-07T13:50:19.929Z,35.50
2019-06-07T13:52:12.184Z,34.80
2019-06-07T13:54:04.240Z,34.90
2019-06-07T13:55:56.748Z,34.20
2019-06-07T13:57:49.360Z,34.30
2019-06-07T13:59:41.623Z,34.00
2019-06-07T14:01:33.929Z,33.30
2019-06-07T14:03:29.226Z,32.90
2019-06-07T14:05:20.948Z,34.00
2019-06-07T14:07:13.984Z,33.80
2019-06-07T14:09:06.673Z,34.10
2019-06-07T14:10:59.107Z,34.20
2019-06-07T14:12:51.575Z,34.20
2019-06-07T14:14:43.886Z,34.40
2019-06-07T14:16:36.461Z,35.60
2019-06-07T14:18:28.753Z,34.90
2019-06-07T14:20:26.622Z,36.00
2019-06-07T14:22:15.209Z,37.20
2019-06-07T14:24:08.833Z,36.20
2019-06-07T14:26:00.855Z,35.80
2019-06-07T14:27:54.187Z,34.90
2019-06-07T14:29:46.505Z,34.30
2019-06-07T14:31:38.784Z,34.70
2019-06-07T14:33:32.524Z,34.10
2019-06-07T14:35:26.654Z,33.90
2019-06-07T14:37:19.552Z,35.10
2019-06-07T14:39:11.690Z,35.70
2019-06-07T14:41:04.470Z,34.80
2019-06-07T14:42:56.901Z,34.10
2019-06-07T14:44:50.654Z,34.80
2019-06-07T14:46:42.858Z,34.20
2019-06-07T14:48:34.841Z,33.40
2019-06-07T14:50:28.151Z,33.60
2019-06-07T14:52:20.831Z,32.60
2019-06-07T14:54:13.037Z,31.90
2019-06-07T14:56:05.517Z,31.50
2019-06-07T14:57:57.498Z,30.70
2019-06-07T14:59:50.337Z,30.40
2019-06-07T15:01:42.939Z,29.80
2019-06-07T15:03:35.164Z,30.00
2019-06-07T15:05:28.857Z,29.80
2019-06-07T15:07:20.987Z,29.40
2019-06-07T15:09:13.247Z,29.10
2019-06-07T15:11:05.583Z,29.00
2019-06-07T15:12:57.844Z,29.00
2019-06-07T15:14:49.921Z,29.10
2019-06-07T15:16:42.016Z,29.50
2019-06-07T15:18:36.145Z,30.40
2019-06-07T15:20:30.320Z,31.10
2019-06-07T15:22:22.536Z,30.70
2019-06-07T15:24:14.618Z,30.30
2019-06-07T15:26:06.943Z,30.50
2019-06-07T15:27:59.171Z,30.20
2019-06-07T15:29:51.927Z,29.80
2019-06-07T15:31:44.265Z,29.60
2019-06-07T15:33:36.548Z,29.30
2019-06-07T15:35:30.234Z,28.90
2019-06-07T15:37:25.981Z,28.30
2019-06-07T15:39:18.062Z,27.90
2019-06-07T15:41:09.973Z,27.80
2019-06-07T15:43:02.322Z,27.90
2019-06-07T15:44:55.961Z,27.80
2019-06-07T15:46:48.784Z,28.00
2019-06-07T15:48:41.175Z,27.70
2019-06-07T15:50:34.324Z,27.50
2019-06-07T15:52:26.670Z,27.10
2019-06-07T15:54:19.002Z,26.90
2019-06-07T15:56:11.389Z,26.90
2019-06-07T15:58:03.645Z,26.60
2019-06-07T15:59:55.931Z,26.70
2019-06-07T16:01:48.308Z,26.70
2019-06-07T16:03:40.201Z,26.60
2019-06-07T16:05:32.501Z,26.50
2019-06-07T16:07:24.854Z,26.50
2019-06-07T16:09:17.389Z,26.60
2019-06-07T16:11:09.845Z,26.60
2019-06-07T16:13:02.195Z,26.70
2019-06-07T16:14:54.782Z,26.70
2019-06-07T16:16:46.961Z,26.70
2019-06-07T16:18:39.727Z,26.60
2019-06-07T16:20:33.200Z,26.60
2019-06-07T16:22:26.108Z,26.60
2019-06-07T16:24:05.540Z,26.40
2019-06-07T16:25:40.102Z,26.40
2019-06-07T16:27:14.224Z,26.40
2019-06-07T16:28:47.964Z,26.50
2019-06-07T16:30:22.799Z,26.50
2019-06-07T16:32:14.734Z,26.40
2019-06-07T16:34:07.456Z,26.30
2019-06-07T16:35:59.432Z,26.30
2019-06-07T16:37:52.449Z,26.30
2019-06-07T16:39:46.448Z,26.40
2019-06-07T16:41:40.420Z,26.30
2019-06-07T16:43:33.283Z,26.30
2019-06-07T16:45:25.809Z,26.40
2019-06-07T16:47:17.738Z,26.70
2019-06-07T16:48:52.862Z,26.50
2019-06-07T16:50:45.249Z,26.50
2019-06-07T16:52:37.303Z,26.40
2019-06-07T16:54:29.294Z,26.40
2019-06-07T16:56:21.541Z,26.30
2019-06-07T16:58:13.700Z,26.30
2019-06-07T17:00:07.565Z,26.30
2019-06-07T17:01:59.948Z,26.20
2019-06-07T17:03:52.397Z,26.10
2019-06-07T17:05:47.304Z,26.30
2019-06-07T17:07:40.284Z,26.20
2019-06-07T17:09:33.197Z,26.30
2019-06-07T17:11:25.513Z,26.20
2019-06-07T17:13:32.399Z,26.10
2019-06-07T17:15:12.303Z,25.90
2019-06-07T17:17:04.997Z,25.80
2019-06-07T17:18:57.254Z,25.70
2019-06-07T17:20:49.719Z,25.70
2019-06-07T17:22:42.479Z,25.60
2019-06-07T17:24:35.903Z,25.70
2019-06-07T17:26:28.211Z,25.70
2019-06-07T17:28:20.559Z,25.70
2019-06-07T17:30:12.973Z,25.80
2019-06-07T17:32:05.150Z,25.80
2019-06-07T17:33:57.349Z,25.70
2019-06-07T17:35:50.625Z,25.70
2019-06-07T17:37:44.330Z,25.80
2019-06-07T17:39:36.962Z,25.80
2019-06-07T17:41:29.099Z,25.70
2019-06-07T17:43:22.745Z,25.70
2019-06-07T17:45:15.226Z,25.70
2019-06-07T17:47:07.214Z,25.60
2019-06-07T17:48:59.247Z,25.80
2019-06-07T17:50:52.800Z,25.60
2019-06-07T17:52:45.962Z,25.50
2019-06-07T17:54:38.781Z,25.50
2019-06-07T17:56:31.685Z,25.60
2019-06-07T17:58:23.752Z,25.50
2019-06-07T18:00:33.403Z,25.30
2019-06-07T18:02:15.321Z,25.30
2019-06-07T18:04:04.421Z,25.20
2019-06-07T18:05:57.854Z,25.30
2019-06-07T18:07:51.827Z,25.20
2019-06-07T18:09:45.363Z,25.20
2019-06-07T18:11:37.849Z,25.10
2019-06-07T18:13:29.750Z,25.00
2019-06-07T18:15:23.191Z,25.00
2019-06-07T18:17:15.843Z,25.00
2019-06-07T18:19:08.460Z,24.90
2019-06-07T18:21:00.693Z,24.80
2019-06-07T18:22:53.369Z,25.00
2019-06-07T18:24:46.542Z,24.90
2019-06-07T18:26:39.200Z,24.80
2019-06-07T18:28:31.326Z,24.70
2019-06-07T18:30:23.273Z,24.70
2019-06-07T18:32:15.556Z,24.70
2019-06-07T18:34:07.770Z,24.70
2019-06-07T18:36:00.072Z,24.70
2019-06-07T18:37:53.076Z,24.70
2019-06-07T18:39:46.927Z,24.80
2019-06-07T18:41:39.749Z,25.00
2019-06-07T18:43:31.796Z,25.00
2019-06-07T18:45:23.816Z,25.00
2019-06-07T18:47:16.085Z,24.80
2019-06-07T18:49:07.924Z,24.50
2019-06-07T18:50:42.124Z,24.30
2019-06-07T18:52:35.937Z,24.20
2019-06-07T18:54:28.249Z,24.10
2019-06-07T18:56:22.289Z,24.20
2019-06-07T18:58:14.496Z,24.10
2019-06-07T19:00:07.065Z,24.10
2019-06-07T19:01:59.480Z,24.10
2019-06-07T19:03:52.099Z,24.00
2019-06-07T19:05:44.599Z,24.00
2019-06-07T19:07:36.882Z,24.00
2019-06-07T19:09:29.368Z,24.00
2019-06-07T19:11:21.934Z,24.00
2019-06-07T19:13:14.231Z,24.00
2019-06-07T19:15:07.201Z,24.00
2019-06-07T19:16:59.812Z,24.10
2019-06-07T19:18:52.173Z,23.90
2019-06-07T19:20:44.545Z,23.90
2019-06-07T19:22:36.844Z,23.70
2019-06-07T19:24:29.158Z,23.50
2019-06-07T19:26:21.071Z,23.40
2019-06-07T19:28:12.937Z,23.20
2019-06-07T19:30:06.060Z,23.10
2019-06-07T19:31:59.075Z,23.10
2019-06-07T19:33:51.259Z,23.20
2019-06-07T19:35:43.701Z,23.10
2019-06-07T19:37:36.016Z,23.10
2019-06-07T19:39:28.105Z,22.90
2019-06-07T19:41:20.188Z,22.90
2019-06-07T19:43:12.564Z,22.80
2019-06-07T19:45:29.022Z,22.80
2019-06-07T19:47:02.738Z,22.80
2019-06-07T19:48:56.528Z,22.80
2019-06-07T19:50:49.145Z,22.70
2019-06-07T19:52:41.423Z,22.60
2019-06-07T19:54:33.371Z,22.60
2019-06-07T19:56:25.829Z,22.60
2019-06-07T19:58:18.470Z,22.70
2019-06-07T20:00:14.569Z,22.70
2019-06-07T20:02:06.345Z,22.80
2019-06-07T20:03:59.961Z,23.00
2019-06-07T20:05:52.093Z,22.90
2019-06-07T20:07:44.580Z,22.80
2019-06-07T20:09:36.930Z,22.70
2019-06-07T20:11:28.842Z,22.50
2019-06-07T20:13:21.462Z,22.40
2019-06-07T20:15:27.737Z,22.30
2019-06-07T20:17:08.510Z,22.30
2019-06-07T20:19:03.045Z,22.30
2019-06-07T20:20:54.639Z,22.20
2019-06-07T20:22:47.066Z,22.20
2019-06-07T20:24:39.368Z,22.10
2019-06-07T20:26:31.241Z,22.20
2019-06-07T20:28:23.752Z,22.20
2019-06-07T20:30:16.190Z,22.10
2019-06-07T20:32:08.906Z,22.10
2019-06-07T20:34:03.758Z,22.00
2019-06-07T20:35:56.616Z,22.00
2019-06-07T20:37:49.181Z,22.00
2019-06-07T20:39:41.985Z,22.00
2019-06-07T20:41:34.184Z,22.00
2019-06-07T20:43:26.350Z,22.00
2019-06-07T20:45:32.560Z,22.10
2019-06-07T20:47:13.092Z,22.20
2019-06-07T20:49:06.506Z,22.50
2019-06-07T20:51:01.049Z,22.60
2019-06-07T20:52:54.573Z,22.80
2019-06-07T20:54:46.908Z,23.00
2019-06-07T20:56:39.489Z,22.90
2019-06-07T20:58:31.616Z,23.00
2019-06-07T21:00:23.876Z,22.90
2019-06-07T21:02:16.053Z,22.90
2019-06-07T21:04:09.225Z,23.00
2019-06-07T21:06:03.314Z,23.00
2019-06-07T21:07:55.897Z,22.90
2019-06-07T21:09:48.011Z,22.90
2019-06-07T21:11:40.081Z,22.70
2019-06-07T21:13:32.358Z,22.40
2019-06-07T21:15:24.636Z,22.00
2019-06-07T21:17:16.571Z,21.50
2019-06-07T21:19:08.854Z,21.20
2019-06-07T21:21:00.742Z,20.90
2019-06-07T21:22:53.181Z,20.50
2019-06-07T21:24:45.414Z,20.40
2019-06-07T21:26:37.557Z,20.10
2019-06-07T21:28:29.780Z,20.00
2019-06-07T21:30:21.739Z,19.90
2019-06-07T21:32:14.078Z,19.80
2019-06-07T21:34:10.203Z,19.60
2019-06-07T21:36:01.467Z,19.40
2019-06-07T21:37:53.663Z,19.10
2019-06-07T21:39:45.748Z,19.00
2019-06-07T21:41:38.085Z,18.60
2019-06-07T21:43:30.020Z,18.40
2019-06-07T21:45:22.340Z,18.30
2019-06-07T21:47:14.614Z,18.30
2019-06-07T21:49:08.355Z,18.30
2019-06-07T21:51:02.212Z,18.20
2019-06-07T21:52:54.841Z,18.30
2019-06-07T21:54:46.988Z,18.20
2019-06-07T21:56:39.148Z,18.10
2019-06-07T21:58:31.048Z,18.10
2019-06-07T22:00:26.260Z,18.00
2019-06-07T22:02:20.029Z,17.90
2019-06-07T22:04:13.726Z,17.90
2019-06-07T22:06:07.648Z,17.90
2019-06-07T22:08:00.487Z,17.90
2019-06-07T22:09:53.036Z,17.80
2019-06-07T22:11:45.456Z,17.60
2019-06-07T22:13:37.599Z,17.70
2019-06-07T22:15:35.361Z,17.60
2019-06-07T22:17:23.808Z,17.40
2019-06-07T22:19:15.879Z,17.30
2019-06-07T22:21:08.531Z,17.20
2019-06-07T22:23:01.399Z,17.00
2019-06-07T22:24:53.411Z,16.90
2019-06-07T22:26:45.588Z,17.10
2019-06-07T22:28:37.568Z,17.10
2019-06-07T22:30:31.989Z,17.00
2019-06-07T22:32:24.352Z,16.90
2019-06-07T22:34:16.532Z,16.90
2019-06-07T22:36:08.952Z,16.90
2019-06-07T22:38:01.378Z,16.90
2019-06-07T22:39:53.403Z,16.80
2019-06-07T22:41:45.969Z,16.90
2019-06-07T22:43:39.482Z,17.00
2019-06-07T22:45:31.757Z,16.90
2019-06-07T22:47:24.009Z,17.00
2019-06-07T22:49:15.847Z,16.80
2019-06-07T22:51:11.380Z,16.70
2019-06-07T22:53:02.816Z,16.70
2019-06-07T22:54:54.961Z,16.70
2019-06-07T22:56:51.239Z,16.70
2019-06-07T22:58:43.578Z,16.60
2019-06-07T23:00:37.424Z,16.60
2019-06-07T23:02:29.426Z,16.60
2019-06-07T23:04:21.369Z,16.70
2019-06-07T23:06:14.636Z,16.70
2019-06-07T23:08:07.152Z,16.80
2019-06-07T23:09:59.391Z,16.80
2019-06-07T23:11:51.900Z,16.70
2019-06-07T23:13:43.984Z,16.60
2019-06-07T23:15:36.350Z,16.70
2019-06-07T23:17:28.774Z,16.60
2019-06-07T23:19:21.054Z,16.60
2019-06-07T23:21:13.777Z,16.70
2019-06-07T23:23:06.365Z,16.70
2019-06-07T23:24:58.680Z,16.70
2019-06-07T23:26:51.257Z,16.60
2019-06-07T23:28:43.544Z,16.70
2019-06-07T23:30:35.439Z,16.70
2019-06-07T23:32:27.834Z,16.70
2019-06-07T23:34:21.007Z,16.70
2019-06-07T23:36:14.964Z,16.70
2019-06-07T23:38:07.379Z,16.60
2019-06-07T23:39:59.788Z,16.50
2019-06-07T23:41:52.214Z,16.60
2019-06-07T23:43:44.588Z,16.70
2019-06-07T23:45:36.562Z,16.60
2019-06-07T23:47:28.788Z,16.60
2019-06-07T23:49:22.366Z,16.50
2019-06-07T23:51:15.591Z,16.50
2019-06-07T23:53:08.347Z,16.40
2019-06-07T23:55:00.508Z,16.50
2019-06-07T23:56:52.443Z,16.40
2019-06-07T23:58:44.959Z,16.50
